<?xml version="1.0" encoding="utf-8"?>
<gpx xmlns:xsi="http://www.w3.org/2001/XMLSchema-instance" xmlns:xsd="http://www.w3.org/2001/XMLSchema" version="1.1" creator="Shapelink.com" xmlns="http://www.topografix.com/GPX/1/1" xmlns:gpxtpx="http://www.garmin.com/xmlschemas/TrackPointExtension/v1">
  <metadata>
    <name>Cykling 23.75 km, 2011-06-20</name>
    <desc></desc>
    <author><name>Jojje Borssén</name></author> 
    <time>2011-06-20T18:00:49Z</time>
  </metadata>
  <trk>
    <name>Cykling 23.75 km, 2011-06-20</name>
    <trkseg>
      <trkpt lat="60.880761" lon="15.125514">
        <ele>288.08</ele>
        <time>2011-06-20T18:00:49Z</time>
      </trkpt>
      <trkpt lat="60.881238" lon="15.12642">
        <ele>287.675</ele>
        <time>2011-06-20T18:00:56Z</time>
      </trkpt>
      <trkpt lat="60.88237" lon="15.127357">
        <ele>287.386</ele>
        <time>2011-06-20T18:01:03Z</time>
      </trkpt>
      <trkpt lat="60.882774" lon="15.128276">
        <ele>285.689</ele>
        <time>2011-06-20T18:01:10Z</time>
      </trkpt>
      <trkpt lat="60.883172" lon="15.129172">
        <ele>285.297</ele>
        <time>2011-06-20T18:01:17Z</time>
      </trkpt>
      <trkpt lat="60.883538" lon="15.129907">
        <ele>285.385</ele>
        <time>2011-06-20T18:01:23Z</time>
      </trkpt>
      <trkpt lat="60.883892" lon="15.130614">
        <ele>285.721</ele>
        <time>2011-06-20T18:01:29Z</time>
      </trkpt>
      <trkpt lat="60.884307" lon="15.131423">
        <ele>285.87</ele>
        <time>2011-06-20T18:01:36Z</time>
      </trkpt>
      <trkpt lat="60.884605" lon="15.13201">
        <ele>285.723</ele>
        <time>2011-06-20T18:01:41Z</time>
      </trkpt>
      <trkpt lat="60.885009" lon="15.132819">
        <ele>285.691</ele>
        <time>2011-06-20T18:01:48Z</time>
      </trkpt>
      <trkpt lat="60.88535" lon="15.133512">
        <ele>285.506</ele>
        <time>2011-06-20T18:01:54Z</time>
      </trkpt>
      <trkpt lat="60.885759" lon="15.134354">
        <ele>285.32</ele>
        <time>2011-06-20T18:02:01Z</time>
      </trkpt>
      <trkpt lat="60.886032" lon="15.134908">
        <ele>285.719</ele>
        <time>2011-06-20T18:02:06Z</time>
      </trkpt>
      <trkpt lat="60.886279" lon="15.13538">
        <ele>286.028</ele>
        <time>2011-06-20T18:02:11Z</time>
      </trkpt>
      <trkpt lat="60.8866" lon="15.136004">
        <ele>286.232</ele>
        <time>2011-06-20T18:02:18Z</time>
      </trkpt>
      <trkpt lat="60.886867" lon="15.136487">
        <ele>285.881</ele>
        <time>2011-06-20T18:02:23Z</time>
      </trkpt>
      <trkpt lat="60.887232" lon="15.13708">
        <ele>284.951</ele>
        <time>2011-06-20T18:02:29Z</time>
      </trkpt>
      <trkpt lat="60.887716" lon="15.137731">
        <ele>284.116</ele>
        <time>2011-06-20T18:02:36Z</time>
      </trkpt>
      <trkpt lat="60.888135" lon="15.1383">
        <ele>284.599</ele>
        <time>2011-06-20T18:02:42Z</time>
      </trkpt>
      <trkpt lat="60.888626" lon="15.138922">
        <ele>283.387</ele>
        <time>2011-06-20T18:02:49Z</time>
      </trkpt>
      <trkpt lat="60.888867" lon="15.139031">
        <ele>283.377</ele>
        <time>2011-06-20T18:02:53Z</time>
      </trkpt>
      <trkpt lat="60.888935" lon="15.138962">
        <ele>284.048</ele>
        <time>2011-06-20T18:02:56Z</time>
      </trkpt>
      <trkpt lat="60.888928" lon="15.138706">
        <ele>283.743</ele>
        <time>2011-06-20T18:02:59Z</time>
      </trkpt>
      <trkpt lat="60.888847" lon="15.138187">
        <ele>281.188</ele>
        <time>2011-06-20T18:03:03Z</time>
      </trkpt>
      <trkpt lat="60.888735" lon="15.137485">
        <ele>278.209</ele>
        <time>2011-06-20T18:03:07Z</time>
      </trkpt>
      <trkpt lat="60.888702" lon="15.137286">
        <ele>277.953</ele>
        <time>2011-06-20T18:03:08Z</time>
      </trkpt>
      <trkpt lat="60.888529" lon="15.136197">
        <ele>274.34</ele>
        <time>2011-06-20T18:03:13Z</time>
      </trkpt>
      <trkpt lat="60.888291" lon="15.134806">
        <ele>271.754</ele>
        <time>2011-06-20T18:03:19Z</time>
      </trkpt>
      <trkpt lat="60.88817" lon="15.133681">
        <ele>271.764</ele>
        <time>2011-06-20T18:03:24Z</time>
      </trkpt>
      <trkpt lat="60.888121" lon="15.132595">
        <ele>271.643</ele>
        <time>2011-06-20T18:03:29Z</time>
      </trkpt>
      <trkpt lat="60.888086" lon="15.131774">
        <ele>272.316</ele>
        <time>2011-06-20T18:03:33Z</time>
      </trkpt>
      <trkpt lat="60.888072" lon="15.130993">
        <ele>273.087</ele>
        <time>2011-06-20T18:03:37Z</time>
      </trkpt>
      <trkpt lat="60.888056" lon="15.130257">
        <ele>273.185</ele>
        <time>2011-06-20T18:03:41Z</time>
      </trkpt>
      <trkpt lat="60.888031" lon="15.129546">
        <ele>273.649</ele>
        <time>2011-06-20T18:03:45Z</time>
      </trkpt>
      <trkpt lat="60.88801" lon="15.128844">
        <ele>274.154</ele>
        <time>2011-06-20T18:03:49Z</time>
      </trkpt>
      <trkpt lat="60.887989" lon="15.12814">
        <ele>274.635</ele>
        <time>2011-06-20T18:03:53Z</time>
      </trkpt>
      <trkpt lat="60.88796" lon="15.127265">
        <ele>274.789</ele>
        <time>2011-06-20T18:03:58Z</time>
      </trkpt>
      <trkpt lat="60.887928" lon="15.126367">
        <ele>274.819</ele>
        <time>2011-06-20T18:04:03Z</time>
      </trkpt>
      <trkpt lat="60.887877" lon="15.125243">
        <ele>273.805</ele>
        <time>2011-06-20T18:04:09Z</time>
      </trkpt>
      <trkpt lat="60.887838" lon="15.124316">
        <ele>272.297</ele>
        <time>2011-06-20T18:04:14Z</time>
      </trkpt>
      <trkpt lat="60.887951" lon="15.123863">
        <ele>272.874</ele>
        <time>2011-06-20T18:04:18Z</time>
      </trkpt>
      <trkpt lat="60.888138" lon="15.123821">
        <ele>273.101</ele>
        <time>2011-06-20T18:04:21Z</time>
      </trkpt>
      <trkpt lat="60.888431" lon="15.123941">
        <ele>272.371</ele>
        <time>2011-06-20T18:04:25Z</time>
      </trkpt>
      <trkpt lat="60.88876" lon="15.12407">
        <ele>271.817</ele>
        <time>2011-06-20T18:04:29Z</time>
      </trkpt>
      <trkpt lat="60.889107" lon="15.124195">
        <ele>271.959</ele>
        <time>2011-06-20T18:04:33Z</time>
      </trkpt>
      <trkpt lat="60.88954" lon="15.124365">
        <ele>272.83</ele>
        <time>2011-06-20T18:04:38Z</time>
      </trkpt>
      <trkpt lat="60.889995" lon="15.124543">
        <ele>272.54</ele>
        <time>2011-06-20T18:04:43Z</time>
      </trkpt>
      <trkpt lat="60.890454" lon="15.124719">
        <ele>272.685</ele>
        <time>2011-06-20T18:04:48Z</time>
      </trkpt>
      <trkpt lat="60.890895" lon="15.124871">
        <ele>272.448</ele>
        <time>2011-06-20T18:04:53Z</time>
      </trkpt>
      <trkpt lat="60.89134" lon="15.125021">
        <ele>272.433</ele>
        <time>2011-06-20T18:04:58Z</time>
      </trkpt>
      <trkpt lat="60.891784" lon="15.125167">
        <ele>271.861</ele>
        <time>2011-06-20T18:05:03Z</time>
      </trkpt>
      <trkpt lat="60.892137" lon="15.125324">
        <ele>271.712</ele>
        <time>2011-06-20T18:05:07Z</time>
      </trkpt>
      <trkpt lat="60.892501" lon="15.125453">
        <ele>271.787</ele>
        <time>2011-06-20T18:05:11Z</time>
      </trkpt>
      <trkpt lat="60.892872" lon="15.12558">
        <ele>271.907</ele>
        <time>2011-06-20T18:05:15Z</time>
      </trkpt>
      <trkpt lat="60.893417" lon="15.125774">
        <ele>272.247</ele>
        <time>2011-06-20T18:05:21Z</time>
      </trkpt>
      <trkpt lat="60.893932" lon="15.125948">
        <ele>272.786</ele>
        <time>2011-06-20T18:05:27Z</time>
      </trkpt>
      <trkpt lat="60.894261" lon="15.126088">
        <ele>273.191</ele>
        <time>2011-06-20T18:05:31Z</time>
      </trkpt>
      <trkpt lat="60.894659" lon="15.126228">
        <ele>273.477</ele>
        <time>2011-06-20T18:05:36Z</time>
      </trkpt>
      <trkpt lat="60.895119" lon="15.126353">
        <ele>273.757</ele>
        <time>2011-06-20T18:05:42Z</time>
      </trkpt>
      <trkpt lat="60.895532" lon="15.126388">
        <ele>274.838</ele>
        <time>2011-06-20T18:05:48Z</time>
      </trkpt>
      <trkpt lat="60.895773" lon="15.126409">
        <ele>275.858</ele>
        <time>2011-06-20T18:05:52Z</time>
      </trkpt>
      <trkpt lat="60.896098" lon="15.126404">
        <ele>277.132</ele>
        <time>2011-06-20T18:05:58Z</time>
      </trkpt>
      <trkpt lat="60.896408" lon="15.126326">
        <ele>278.02</ele>
        <time>2011-06-20T18:06:04Z</time>
      </trkpt>
      <trkpt lat="60.896618" lon="15.126218">
        <ele>278.262</ele>
        <time>2011-06-20T18:06:08Z</time>
      </trkpt>
      <trkpt lat="60.89696" lon="15.125865">
        <ele>278.768</ele>
        <time>2011-06-20T18:06:15Z</time>
      </trkpt>
      <trkpt lat="60.897346" lon="15.125432">
        <ele>278.334</ele>
        <time>2011-06-20T18:06:23Z</time>
      </trkpt>
      <trkpt lat="60.897708" lon="15.124947">
        <ele>278.248</ele>
        <time>2011-06-20T18:06:30Z</time>
      </trkpt>
      <trkpt lat="60.89802" lon="15.124461">
        <ele>278.178</ele>
        <time>2011-06-20T18:06:36Z</time>
      </trkpt>
      <trkpt lat="60.898419" lon="15.123728">
        <ele>277.916</ele>
        <time>2011-06-20T18:06:44Z</time>
      </trkpt>
      <trkpt lat="60.898624" lon="15.123356">
        <ele>277.685</ele>
        <time>2011-06-20T18:06:48Z</time>
      </trkpt>
      <trkpt lat="60.899085" lon="15.122785">
        <ele>277.065</ele>
        <time>2011-06-20T18:06:56Z</time>
      </trkpt>
      <trkpt lat="60.899537" lon="15.122457">
        <ele>277.304</ele>
        <time>2011-06-20T18:07:03Z</time>
      </trkpt>
      <trkpt lat="60.899894" lon="15.122222">
        <ele>277.136</ele>
        <time>2011-06-20T18:07:08Z</time>
      </trkpt>
      <trkpt lat="60.900342" lon="15.121928">
        <ele>276.872</ele>
        <time>2011-06-20T18:07:14Z</time>
      </trkpt>
      <trkpt lat="60.900728" lon="15.121668">
        <ele>276.886</ele>
        <time>2011-06-20T18:07:19Z</time>
      </trkpt>
      <trkpt lat="60.901201" lon="15.121484">
        <ele>276.644</ele>
        <time>2011-06-20T18:07:25Z</time>
      </trkpt>
      <trkpt lat="60.901655" lon="15.121743">
        <ele>276.533</ele>
        <time>2011-06-20T18:07:31Z</time>
      </trkpt>
      <trkpt lat="60.902034" lon="15.122005">
        <ele>276.348</ele>
        <time>2011-06-20T18:07:36Z</time>
      </trkpt>
      <trkpt lat="60.902431" lon="15.122191">
        <ele>275.905</ele>
        <time>2011-06-20T18:07:41Z</time>
      </trkpt>
      <trkpt lat="60.902836" lon="15.122299">
        <ele>276.154</ele>
        <time>2011-06-20T18:07:46Z</time>
      </trkpt>
      <trkpt lat="60.903305" lon="15.122431">
        <ele>276.234</ele>
        <time>2011-06-20T18:07:52Z</time>
      </trkpt>
      <trkpt lat="60.903744" lon="15.122581">
        <ele>276.767</ele>
        <time>2011-06-20T18:07:58Z</time>
      </trkpt>
      <trkpt lat="60.904052" lon="15.122678">
        <ele>276.783</ele>
        <time>2011-06-20T18:08:02Z</time>
      </trkpt>
      <trkpt lat="60.904423" lon="15.122781">
        <ele>277.242</ele>
        <time>2011-06-20T18:08:07Z</time>
      </trkpt>
      <trkpt lat="60.904725" lon="15.12288">
        <ele>277.542</ele>
        <time>2011-06-20T18:08:11Z</time>
      </trkpt>
      <trkpt lat="60.905173" lon="15.123007">
        <ele>278.253</ele>
        <time>2011-06-20T18:08:17Z</time>
      </trkpt>
      <trkpt lat="60.905617" lon="15.123062">
        <ele>278.451</ele>
        <time>2011-06-20T18:08:23Z</time>
      </trkpt>
      <trkpt lat="60.906089" lon="15.123045">
        <ele>279.863</ele>
        <time>2011-06-20T18:08:30Z</time>
      </trkpt>
      <trkpt lat="60.906202" lon="15.123046">
        <ele>280.383</ele>
        <time>2011-06-20T18:08:33Z</time>
      </trkpt>
      <trkpt lat="60.906219" lon="15.123046">
        <ele>280.683</ele>
        <time>2011-06-20T18:08:35Z</time>
      </trkpt>
      <trkpt lat="60.906232" lon="15.123041">
        <ele>279.733</ele>
        <time>2011-06-20T18:08:58Z</time>
      </trkpt>
      <trkpt lat="60.906338" lon="15.123035">
        <ele>279.482</ele>
        <time>2011-06-20T18:09:02Z</time>
      </trkpt>
      <trkpt lat="60.906571" lon="15.123021">
        <ele>279.182</ele>
        <time>2011-06-20T18:09:08Z</time>
      </trkpt>
      <trkpt lat="60.90661" lon="15.123026">
        <ele>279.214</ele>
        <time>2011-06-20T18:09:09Z</time>
      </trkpt>
      <trkpt lat="60.906838" lon="15.123">
        <ele>279.191</ele>
        <time>2011-06-20T18:09:14Z</time>
      </trkpt>
      <trkpt lat="60.907206" lon="15.122979">
        <ele>279.541</ele>
        <time>2011-06-20T18:09:21Z</time>
      </trkpt>
      <trkpt lat="60.907513" lon="15.122972">
        <ele>279.431</ele>
        <time>2011-06-20T18:09:26Z</time>
      </trkpt>
      <trkpt lat="60.907912" lon="15.122937">
        <ele>278.872</ele>
        <time>2011-06-20T18:09:32Z</time>
      </trkpt>
      <trkpt lat="60.908317" lon="15.122913">
        <ele>278.896</ele>
        <time>2011-06-20T18:09:38Z</time>
      </trkpt>
      <trkpt lat="60.908646" lon="15.122909">
        <ele>278.96</ele>
        <time>2011-06-20T18:09:43Z</time>
      </trkpt>
      <trkpt lat="60.909054" lon="15.122923">
        <ele>279.338</ele>
        <time>2011-06-20T18:09:49Z</time>
      </trkpt>
      <trkpt lat="60.909482" lon="15.122906">
        <ele>279.224</ele>
        <time>2011-06-20T18:09:55Z</time>
      </trkpt>
      <trkpt lat="60.909924" lon="15.122866">
        <ele>278.786</ele>
        <time>2011-06-20T18:10:01Z</time>
      </trkpt>
      <trkpt lat="60.910471" lon="15.122846">
        <ele>277.139</ele>
        <time>2011-06-20T18:10:08Z</time>
      </trkpt>
      <trkpt lat="60.91096" lon="15.122812">
        <ele>276.785</ele>
        <time>2011-06-20T18:10:14Z</time>
      </trkpt>
      <trkpt lat="60.911335" lon="15.122815">
        <ele>277.22</ele>
        <time>2011-06-20T18:10:19Z</time>
      </trkpt>
      <trkpt lat="60.911714" lon="15.122815">
        <ele>277.237</ele>
        <time>2011-06-20T18:10:24Z</time>
      </trkpt>
      <trkpt lat="60.912104" lon="15.122804">
        <ele>277.474</ele>
        <time>2011-06-20T18:10:29Z</time>
      </trkpt>
      <trkpt lat="60.912443" lon="15.122762">
        <ele>280.132</ele>
        <time>2011-06-20T18:10:34Z</time>
      </trkpt>
      <trkpt lat="60.912553" lon="15.122743">
        <ele>280.808</ele>
        <time>2011-06-20T18:10:36Z</time>
      </trkpt>
      <trkpt lat="60.912706" lon="15.12273">
        <ele>281.67</ele>
        <time>2011-06-20T18:10:39Z</time>
      </trkpt>
      <trkpt lat="60.912896" lon="15.122725">
        <ele>283.115</ele>
        <time>2011-06-20T18:10:43Z</time>
      </trkpt>
      <trkpt lat="60.913033" lon="15.122721">
        <ele>284.216</ele>
        <time>2011-06-20T18:10:46Z</time>
      </trkpt>
      <trkpt lat="60.913168" lon="15.122723">
        <ele>285.405</ele>
        <time>2011-06-20T18:10:49Z</time>
      </trkpt>
      <trkpt lat="60.913308" lon="15.122715">
        <ele>286.594</ele>
        <time>2011-06-20T18:10:52Z</time>
      </trkpt>
      <trkpt lat="60.913449" lon="15.122707">
        <ele>287.618</ele>
        <time>2011-06-20T18:10:55Z</time>
      </trkpt>
      <trkpt lat="60.913592" lon="15.122704">
        <ele>288.627</ele>
        <time>2011-06-20T18:10:58Z</time>
      </trkpt>
      <trkpt lat="60.913779" lon="15.122692">
        <ele>290.232</ele>
        <time>2011-06-20T18:11:02Z</time>
      </trkpt>
      <trkpt lat="60.913917" lon="15.122678">
        <ele>291.181</ele>
        <time>2011-06-20T18:11:05Z</time>
      </trkpt>
      <trkpt lat="60.914141" lon="15.122678">
        <ele>292.582</ele>
        <time>2011-06-20T18:11:10Z</time>
      </trkpt>
      <trkpt lat="60.914319" lon="15.122666">
        <ele>293.706</ele>
        <time>2011-06-20T18:11:14Z</time>
      </trkpt>
      <trkpt lat="60.914494" lon="15.122668">
        <ele>294.739</ele>
        <time>2011-06-20T18:11:18Z</time>
      </trkpt>
      <trkpt lat="60.91467" lon="15.122668">
        <ele>295.702</ele>
        <time>2011-06-20T18:11:22Z</time>
      </trkpt>
      <trkpt lat="60.914885" lon="15.122659">
        <ele>296.568</ele>
        <time>2011-06-20T18:11:27Z</time>
      </trkpt>
      <trkpt lat="60.914932" lon="15.12266">
        <ele>296.717</ele>
        <time>2011-06-20T18:11:28Z</time>
      </trkpt>
      <trkpt lat="60.915203" lon="15.122645">
        <ele>297.751</ele>
        <time>2011-06-20T18:11:34Z</time>
      </trkpt>
      <trkpt lat="60.915456" lon="15.122638">
        <ele>299.134</ele>
        <time>2011-06-20T18:11:40Z</time>
      </trkpt>
      <trkpt lat="60.915659" lon="15.122614">
        <ele>300.369</ele>
        <time>2011-06-20T18:11:45Z</time>
      </trkpt>
      <trkpt lat="60.915823" lon="15.122615">
        <ele>301.351</ele>
        <time>2011-06-20T18:11:49Z</time>
      </trkpt>
      <trkpt lat="60.916043" lon="15.122595">
        <ele>302.642</ele>
        <time>2011-06-20T18:11:54Z</time>
      </trkpt>
      <trkpt lat="60.916209" lon="15.122601">
        <ele>303.603</ele>
        <time>2011-06-20T18:11:58Z</time>
      </trkpt>
      <trkpt lat="60.916403" lon="15.12259">
        <ele>304.616</ele>
        <time>2011-06-20T18:12:03Z</time>
      </trkpt>
      <trkpt lat="60.916571" lon="15.1226">
        <ele>305.365</ele>
        <time>2011-06-20T18:12:07Z</time>
      </trkpt>
      <trkpt lat="60.916744" lon="15.122563">
        <ele>306.689</ele>
        <time>2011-06-20T18:12:11Z</time>
      </trkpt>
      <trkpt lat="60.916908" lon="15.12255">
        <ele>307.892</ele>
        <time>2011-06-20T18:12:15Z</time>
      </trkpt>
      <trkpt lat="60.917078" lon="15.122518">
        <ele>308.788</ele>
        <time>2011-06-20T18:12:19Z</time>
      </trkpt>
      <trkpt lat="60.917293" lon="15.122456">
        <ele>309.826</ele>
        <time>2011-06-20T18:12:24Z</time>
      </trkpt>
      <trkpt lat="60.917508" lon="15.122378">
        <ele>310.566</ele>
        <time>2011-06-20T18:12:29Z</time>
      </trkpt>
      <trkpt lat="60.917726" lon="15.122251">
        <ele>311.411</ele>
        <time>2011-06-20T18:12:34Z</time>
      </trkpt>
      <trkpt lat="60.917915" lon="15.12214">
        <ele>311.738</ele>
        <time>2011-06-20T18:12:38Z</time>
      </trkpt>
      <trkpt lat="60.918157" lon="15.122002">
        <ele>312.956</ele>
        <time>2011-06-20T18:12:43Z</time>
      </trkpt>
      <trkpt lat="60.918392" lon="15.121848">
        <ele>313.658</ele>
        <time>2011-06-20T18:12:48Z</time>
      </trkpt>
      <trkpt lat="60.918637" lon="15.121701">
        <ele>314.36</ele>
        <time>2011-06-20T18:12:53Z</time>
      </trkpt>
      <trkpt lat="60.918891" lon="15.121545">
        <ele>315.235</ele>
        <time>2011-06-20T18:12:58Z</time>
      </trkpt>
      <trkpt lat="60.919139" lon="15.121384">
        <ele>316.211</ele>
        <time>2011-06-20T18:13:03Z</time>
      </trkpt>
      <trkpt lat="60.919396" lon="15.121217">
        <ele>316.841</ele>
        <time>2011-06-20T18:13:08Z</time>
      </trkpt>
      <trkpt lat="60.919665" lon="15.121041">
        <ele>317.296</ele>
        <time>2011-06-20T18:13:13Z</time>
      </trkpt>
      <trkpt lat="60.919893" lon="15.120881">
        <ele>318.041</ele>
        <time>2011-06-20T18:13:17Z</time>
      </trkpt>
      <trkpt lat="60.920139" lon="15.120702">
        <ele>318.631</ele>
        <time>2011-06-20T18:13:21Z</time>
      </trkpt>
      <trkpt lat="60.920387" lon="15.120506">
        <ele>318.887</ele>
        <time>2011-06-20T18:13:25Z</time>
      </trkpt>
      <trkpt lat="60.920693" lon="15.120265">
        <ele>319.874</ele>
        <time>2011-06-20T18:13:30Z</time>
      </trkpt>
      <trkpt lat="60.920996" lon="15.120039">
        <ele>320.778</ele>
        <time>2011-06-20T18:13:35Z</time>
      </trkpt>
      <trkpt lat="60.921288" lon="15.119797">
        <ele>321.653</ele>
        <time>2011-06-20T18:13:40Z</time>
      </trkpt>
      <trkpt lat="60.921518" lon="15.119604">
        <ele>322.536</ele>
        <time>2011-06-20T18:13:44Z</time>
      </trkpt>
      <trkpt lat="60.921782" lon="15.119389">
        <ele>323.246</ele>
        <time>2011-06-20T18:13:49Z</time>
      </trkpt>
      <trkpt lat="60.921994" lon="15.119231">
        <ele>325.144</ele>
        <time>2011-06-20T18:13:53Z</time>
      </trkpt>
      <trkpt lat="60.922269" lon="15.119048">
        <ele>325.887</ele>
        <time>2011-06-20T18:13:58Z</time>
      </trkpt>
      <trkpt lat="60.922531" lon="15.118899">
        <ele>325.682</ele>
        <time>2011-06-20T18:14:03Z</time>
      </trkpt>
      <trkpt lat="60.922814" lon="15.118743">
        <ele>325.511</ele>
        <time>2011-06-20T18:14:09Z</time>
      </trkpt>
      <trkpt lat="60.923032" lon="15.118628">
        <ele>325.302</ele>
        <time>2011-06-20T18:14:14Z</time>
      </trkpt>
      <trkpt lat="60.923251" lon="15.11852">
        <ele>325.178</ele>
        <time>2011-06-20T18:14:19Z</time>
      </trkpt>
      <trkpt lat="60.923646" lon="15.118317">
        <ele>324.853</ele>
        <time>2011-06-20T18:14:27Z</time>
      </trkpt>
      <trkpt lat="60.923992" lon="15.118148">
        <ele>324.613</ele>
        <time>2011-06-20T18:14:33Z</time>
      </trkpt>
      <trkpt lat="60.924378" lon="15.117966">
        <ele>325.657</ele>
        <time>2011-06-20T18:14:39Z</time>
      </trkpt>
      <trkpt lat="60.924601" lon="15.117904">
        <ele>330.035</ele>
        <time>2011-06-20T18:14:42Z</time>
      </trkpt>
      <trkpt lat="60.924678" lon="15.117889">
        <ele>330.265</ele>
        <time>2011-06-20T18:14:43Z</time>
      </trkpt>
      <trkpt lat="60.924993" lon="15.117886">
        <ele>330.495</ele>
        <time>2011-06-20T18:14:47Z</time>
      </trkpt>
      <trkpt lat="60.925307" lon="15.117955">
        <ele>331.664</ele>
        <time>2011-06-20T18:14:51Z</time>
      </trkpt>
      <trkpt lat="60.925612" lon="15.118105">
        <ele>332.466</ele>
        <time>2011-06-20T18:14:55Z</time>
      </trkpt>
      <trkpt lat="60.925983" lon="15.118379">
        <ele>333.082</ele>
        <time>2011-06-20T18:15:00Z</time>
      </trkpt>
      <trkpt lat="60.926349" lon="15.11868">
        <ele>333.161</ele>
        <time>2011-06-20T18:15:05Z</time>
      </trkpt>
      <trkpt lat="60.92669" lon="15.119095">
        <ele>334.325</ele>
        <time>2011-06-20T18:15:10Z</time>
      </trkpt>
      <trkpt lat="60.926921" lon="15.119494">
        <ele>334.937</ele>
        <time>2011-06-20T18:15:14Z</time>
      </trkpt>
      <trkpt lat="60.927151" lon="15.119925">
        <ele>335.452</ele>
        <time>2011-06-20T18:15:18Z</time>
      </trkpt>
      <trkpt lat="60.927451" lon="15.120467">
        <ele>335.956</ele>
        <time>2011-06-20T18:15:23Z</time>
      </trkpt>
      <trkpt lat="60.927825" lon="15.121134">
        <ele>335.948</ele>
        <time>2011-06-20T18:15:29Z</time>
      </trkpt>
      <trkpt lat="60.928175" lon="15.121756">
        <ele>334.264</ele>
        <time>2011-06-20T18:15:34Z</time>
      </trkpt>
      <trkpt lat="60.928412" lon="15.122456">
        <ele>332.778</ele>
        <time>2011-06-20T18:15:38Z</time>
      </trkpt>
      <trkpt lat="60.928495" lon="15.122886">
        <ele>330.9</ele>
        <time>2011-06-20T18:15:40Z</time>
      </trkpt>
      <trkpt lat="60.928669" lon="15.124354">
        <ele>326.436</ele>
        <time>2011-06-20T18:15:46Z</time>
      </trkpt>
      <trkpt lat="60.928847" lon="15.125851">
        <ele>321.948</ele>
        <time>2011-06-20T18:15:52Z</time>
      </trkpt>
      <trkpt lat="60.929047" lon="15.127193">
        <ele>316.576</ele>
        <time>2011-06-20T18:15:57Z</time>
      </trkpt>
      <trkpt lat="60.929094" lon="15.127447">
        <ele>316.302</ele>
        <time>2011-06-20T18:15:58Z</time>
      </trkpt>
      <trkpt lat="60.929285" lon="15.128384">
        <ele>317.056</ele>
        <time>2011-06-20T18:16:02Z</time>
      </trkpt>
      <trkpt lat="60.929419" lon="15.128742">
        <ele>317.9</ele>
        <time>2011-06-20T18:16:04Z</time>
      </trkpt>
      <trkpt lat="60.929588" lon="15.128981">
        <ele>319.558</ele>
        <time>2011-06-20T18:16:06Z</time>
      </trkpt>
      <trkpt lat="60.92992" lon="15.129366">
        <ele>322.113</ele>
        <time>2011-06-20T18:16:10Z</time>
      </trkpt>
      <trkpt lat="60.930005" lon="15.129442">
        <ele>322.518</ele>
        <time>2011-06-20T18:16:11Z</time>
      </trkpt>
      <trkpt lat="60.930445" lon="15.129673">
        <ele>323.539</ele>
        <time>2011-06-20T18:16:16Z</time>
      </trkpt>
      <trkpt lat="60.930873" lon="15.129872">
        <ele>323.828</ele>
        <time>2011-06-20T18:16:21Z</time>
      </trkpt>
      <trkpt lat="60.93132" lon="15.130054">
        <ele>323.204</ele>
        <time>2011-06-20T18:16:26Z</time>
      </trkpt>
      <trkpt lat="60.931891" lon="15.130324">
        <ele>322.424</ele>
        <time>2011-06-20T18:16:32Z</time>
      </trkpt>
      <trkpt lat="60.932742" lon="15.130702">
        <ele>318.06</ele>
        <time>2011-06-20T18:16:40Z</time>
      </trkpt>
      <trkpt lat="60.933581" lon="15.131075">
        <ele>311.391</ele>
        <time>2011-06-20T18:16:47Z</time>
      </trkpt>
      <trkpt lat="60.934642" lon="15.131547">
        <ele>304.807</ele>
        <time>2011-06-20T18:16:55Z</time>
      </trkpt>
      <trkpt lat="60.935635" lon="15.131984">
        <ele>299.615</ele>
        <time>2011-06-20T18:17:02Z</time>
      </trkpt>
      <trkpt lat="60.936326" lon="15.132281">
        <ele>295.362</ele>
        <time>2011-06-20T18:17:07Z</time>
      </trkpt>
      <trkpt lat="60.936871" lon="15.132561">
        <ele>293.21</ele>
        <time>2011-06-20T18:17:11Z</time>
      </trkpt>
      <trkpt lat="60.937531" lon="15.132989">
        <ele>291.454</ele>
        <time>2011-06-20T18:17:16Z</time>
      </trkpt>
      <trkpt lat="60.938272" lon="15.133546">
        <ele>289.437</ele>
        <time>2011-06-20T18:17:22Z</time>
      </trkpt>
      <trkpt lat="60.938721" lon="15.133933">
        <ele>288.628</ele>
        <time>2011-06-20T18:17:26Z</time>
      </trkpt>
      <trkpt lat="60.939031" lon="15.134218">
        <ele>289.044</ele>
        <time>2011-06-20T18:17:29Z</time>
      </trkpt>
      <trkpt lat="60.939486" lon="15.134701">
        <ele>290.931</ele>
        <time>2011-06-20T18:17:34Z</time>
      </trkpt>
      <trkpt lat="60.939794" lon="15.135054">
        <ele>292.862</ele>
        <time>2011-06-20T18:17:38Z</time>
      </trkpt>
      <trkpt lat="60.940073" lon="15.135368">
        <ele>294.306</ele>
        <time>2011-06-20T18:17:42Z</time>
      </trkpt>
      <trkpt lat="60.940362" lon="15.135653">
        <ele>294.756</ele>
        <time>2011-06-20T18:17:46Z</time>
      </trkpt>
      <trkpt lat="60.940716" lon="15.136">
        <ele>295.956</ele>
        <time>2011-06-20T18:17:51Z</time>
      </trkpt>
      <trkpt lat="60.941096" lon="15.136416">
        <ele>296.916</ele>
        <time>2011-06-20T18:17:57Z</time>
      </trkpt>
      <trkpt lat="60.941383" lon="15.136729">
        <ele>297.835</ele>
        <time>2011-06-20T18:18:02Z</time>
      </trkpt>
      <trkpt lat="60.941643" lon="15.137012">
        <ele>299.064</ele>
        <time>2011-06-20T18:18:07Z</time>
      </trkpt>
      <trkpt lat="60.941844" lon="15.137238">
        <ele>300.187</ele>
        <time>2011-06-20T18:18:11Z</time>
      </trkpt>
      <trkpt lat="60.941996" lon="15.137395">
        <ele>300.958</ele>
        <time>2011-06-20T18:18:14Z</time>
      </trkpt>
      <trkpt lat="60.942255" lon="15.137656">
        <ele>302.15</ele>
        <time>2011-06-20T18:18:19Z</time>
      </trkpt>
      <trkpt lat="60.942529" lon="15.137944">
        <ele>303.057</ele>
        <time>2011-06-20T18:18:25Z</time>
      </trkpt>
      <trkpt lat="60.94275" lon="15.138165">
        <ele>304.265</ele>
        <time>2011-06-20T18:18:30Z</time>
      </trkpt>
      <trkpt lat="60.943066" lon="15.138519">
        <ele>304.827</ele>
        <time>2011-06-20T18:18:37Z</time>
      </trkpt>
      <trkpt lat="60.943454" lon="15.138919">
        <ele>304.796</ele>
        <time>2011-06-20T18:18:45Z</time>
      </trkpt>
      <trkpt lat="60.943746" lon="15.13923">
        <ele>304.468</ele>
        <time>2011-06-20T18:18:50Z</time>
      </trkpt>
      <trkpt lat="60.944135" lon="15.139651">
        <ele>304.594</ele>
        <time>2011-06-20T18:18:56Z</time>
      </trkpt>
      <trkpt lat="60.944554" lon="15.140093">
        <ele>302.964</ele>
        <time>2011-06-20T18:19:02Z</time>
      </trkpt>
      <trkpt lat="60.945055" lon="15.140611">
        <ele>302.932</ele>
        <time>2011-06-20T18:19:09Z</time>
      </trkpt>
      <trkpt lat="60.945504" lon="15.141079">
        <ele>303.325</ele>
        <time>2011-06-20T18:19:16Z</time>
      </trkpt>
      <trkpt lat="60.945756" lon="15.141358">
        <ele>304.406</ele>
        <time>2011-06-20T18:19:21Z</time>
      </trkpt>
      <trkpt lat="60.945828" lon="15.141435">
        <ele>305.293</ele>
        <time>2011-06-20T18:19:24Z</time>
      </trkpt>
      <trkpt lat="60.945832" lon="15.141435">
        <ele>305.549</ele>
        <time>2011-06-20T18:19:25Z</time>
      </trkpt>
      <trkpt lat="60.945884" lon="15.141495">
        <ele>303.3</ele>
        <time>2011-06-20T18:20:38Z</time>
      </trkpt>
      <trkpt lat="60.946007" lon="15.141622">
        <ele>303.154</ele>
        <time>2011-06-20T18:20:43Z</time>
      </trkpt>
      <trkpt lat="60.946076" lon="15.1417">
        <ele>303.237</ele>
        <time>2011-06-20T18:20:45Z</time>
      </trkpt>
      <trkpt lat="60.946339" lon="15.141981">
        <ele>303.167</ele>
        <time>2011-06-20T18:20:51Z</time>
      </trkpt>
      <trkpt lat="60.946569" lon="15.142226">
        <ele>302.623</ele>
        <time>2011-06-20T18:20:55Z</time>
      </trkpt>
      <trkpt lat="60.946986" lon="15.142656">
        <ele>301.28</ele>
        <time>2011-06-20T18:21:01Z</time>
      </trkpt>
      <trkpt lat="60.947383" lon="15.143104">
        <ele>300.675</ele>
        <time>2011-06-20T18:21:07Z</time>
      </trkpt>
      <trkpt lat="60.947775" lon="15.143392">
        <ele>300.756</ele>
        <time>2011-06-20T18:21:12Z</time>
      </trkpt>
      <trkpt lat="60.948165" lon="15.143568">
        <ele>301.305</ele>
        <time>2011-06-20T18:21:17Z</time>
      </trkpt>
      <trkpt lat="60.948474" lon="15.143674">
        <ele>301.822</ele>
        <time>2011-06-20T18:21:21Z</time>
      </trkpt>
      <trkpt lat="60.948849" lon="15.143813">
        <ele>303.061</ele>
        <time>2011-06-20T18:21:26Z</time>
      </trkpt>
      <trkpt lat="60.949207" lon="15.143922">
        <ele>304.086</ele>
        <time>2011-06-20T18:21:31Z</time>
      </trkpt>
      <trkpt lat="60.949527" lon="15.144061">
        <ele>305.468</ele>
        <time>2011-06-20T18:21:36Z</time>
      </trkpt>
      <trkpt lat="60.949884" lon="15.144195">
        <ele>305.598</ele>
        <time>2011-06-20T18:21:41Z</time>
      </trkpt>
      <trkpt lat="60.950346" lon="15.144351">
        <ele>304.363</ele>
        <time>2011-06-20T18:21:47Z</time>
      </trkpt>
      <trkpt lat="60.950863" lon="15.144544">
        <ele>303.377</ele>
        <time>2011-06-20T18:21:53Z</time>
      </trkpt>
      <trkpt lat="60.951298" lon="15.14472">
        <ele>303.062</ele>
        <time>2011-06-20T18:21:58Z</time>
      </trkpt>
      <trkpt lat="60.951762" lon="15.144895">
        <ele>303.773</ele>
        <time>2011-06-20T18:22:04Z</time>
      </trkpt>
      <trkpt lat="60.952076" lon="15.145036">
        <ele>303.585</ele>
        <time>2011-06-20T18:22:08Z</time>
      </trkpt>
      <trkpt lat="60.952437" lon="15.14509">
        <ele>302.7</ele>
        <time>2011-06-20T18:22:12Z</time>
      </trkpt>
      <trkpt lat="60.95283" lon="15.144901">
        <ele>300.673</ele>
        <time>2011-06-20T18:22:16Z</time>
      </trkpt>
      <trkpt lat="60.953275" lon="15.144562">
        <ele>298.14</ele>
        <time>2011-06-20T18:22:21Z</time>
      </trkpt>
      <trkpt lat="60.953642" lon="15.144263">
        <ele>297.971</ele>
        <time>2011-06-20T18:22:25Z</time>
      </trkpt>
      <trkpt lat="60.954134" lon="15.143919">
        <ele>298.185</ele>
        <time>2011-06-20T18:22:30Z</time>
      </trkpt>
      <trkpt lat="60.95461" lon="15.143556">
        <ele>298.252</ele>
        <time>2011-06-20T18:22:35Z</time>
      </trkpt>
      <trkpt lat="60.95506" lon="15.143211">
        <ele>298.784</ele>
        <time>2011-06-20T18:22:40Z</time>
      </trkpt>
      <trkpt lat="60.955404" lon="15.142951">
        <ele>300.154</ele>
        <time>2011-06-20T18:22:44Z</time>
      </trkpt>
      <trkpt lat="60.9559" lon="15.142573">
        <ele>300.506</ele>
        <time>2011-06-20T18:22:50Z</time>
      </trkpt>
      <trkpt lat="60.956302" lon="15.142295">
        <ele>301.707</ele>
        <time>2011-06-20T18:22:55Z</time>
      </trkpt>
      <trkpt lat="60.956697" lon="15.14203">
        <ele>302.183</ele>
        <time>2011-06-20T18:23:00Z</time>
      </trkpt>
      <trkpt lat="60.957001" lon="15.141804">
        <ele>302.241</ele>
        <time>2011-06-20T18:23:04Z</time>
      </trkpt>
      <trkpt lat="60.957233" lon="15.141639">
        <ele>302.751</ele>
        <time>2011-06-20T18:23:07Z</time>
      </trkpt>
      <trkpt lat="60.95753" lon="15.14143">
        <ele>303.503</ele>
        <time>2011-06-20T18:23:11Z</time>
      </trkpt>
      <trkpt lat="60.957929" lon="15.141161">
        <ele>304.814</ele>
        <time>2011-06-20T18:23:17Z</time>
      </trkpt>
      <trkpt lat="60.958297" lon="15.140931">
        <ele>305.581</ele>
        <time>2011-06-20T18:23:23Z</time>
      </trkpt>
      <trkpt lat="60.958642" lon="15.140762">
        <ele>305.995</ele>
        <time>2011-06-20T18:23:29Z</time>
      </trkpt>
      <trkpt lat="60.95902" lon="15.140562">
        <ele>306.19</ele>
        <time>2011-06-20T18:23:34Z</time>
      </trkpt>
      <trkpt lat="60.959324" lon="15.140389">
        <ele>306.901</ele>
        <time>2011-06-20T18:23:39Z</time>
      </trkpt>
      <trkpt lat="60.959384" lon="15.140354">
        <ele>307.071</ele>
        <time>2011-06-20T18:23:40Z</time>
      </trkpt>
      <trkpt lat="60.959832" lon="15.140134">
        <ele>307.81</ele>
        <time>2011-06-20T18:23:47Z</time>
      </trkpt>
      <trkpt lat="60.959958" lon="15.140081">
        <ele>308.046</ele>
        <time>2011-06-20T18:23:49Z</time>
      </trkpt>
      <trkpt lat="60.960322" lon="15.139873">
        <ele>308.92</ele>
        <time>2011-06-20T18:23:55Z</time>
      </trkpt>
      <trkpt lat="60.960628" lon="15.1397">
        <ele>309.312</ele>
        <time>2011-06-20T18:24:00Z</time>
      </trkpt>
      <trkpt lat="60.960974" lon="15.139529">
        <ele>309.924</ele>
        <time>2011-06-20T18:24:06Z</time>
      </trkpt>
      <trkpt lat="60.961233" lon="15.139444">
        <ele>310.707</ele>
        <time>2011-06-20T18:24:11Z</time>
      </trkpt>
      <trkpt lat="60.961434" lon="15.139347">
        <ele>311.947</ele>
        <time>2011-06-20T18:24:16Z</time>
      </trkpt>
      <trkpt lat="60.961686" lon="15.1392">
        <ele>313.301</ele>
        <time>2011-06-20T18:24:22Z</time>
      </trkpt>
      <trkpt lat="60.96184" lon="15.139157">
        <ele>314.383</ele>
        <time>2011-06-20T18:24:27Z</time>
      </trkpt>
      <trkpt lat="60.96185" lon="15.139154">
        <ele>314.289</ele>
        <time>2011-06-20T18:24:28Z</time>
      </trkpt>
      <trkpt lat="60.961966" lon="15.139088">
        <ele>313.012</ele>
        <time>2011-06-20T18:25:31Z</time>
      </trkpt>
      <trkpt lat="60.962129" lon="15.138973">
        <ele>313.04</ele>
        <time>2011-06-20T18:25:36Z</time>
      </trkpt>
      <trkpt lat="60.962322" lon="15.138885">
        <ele>313.034</ele>
        <time>2011-06-20T18:25:40Z</time>
      </trkpt>
      <trkpt lat="60.962431" lon="15.13886">
        <ele>312.981</ele>
        <time>2011-06-20T18:25:42Z</time>
      </trkpt>
      <trkpt lat="60.962533" lon="15.138802">
        <ele>312.868</ele>
        <time>2011-06-20T18:25:44Z</time>
      </trkpt>
      <trkpt lat="60.962849" lon="15.138588">
        <ele>313.025</ele>
        <time>2011-06-20T18:25:49Z</time>
      </trkpt>
      <trkpt lat="60.963088" lon="15.13841">
        <ele>313.779</ele>
        <time>2011-06-20T18:25:53Z</time>
      </trkpt>
      <trkpt lat="60.963315" lon="15.138198">
        <ele>315.483</ele>
        <time>2011-06-20T18:25:57Z</time>
      </trkpt>
      <trkpt lat="60.963603" lon="15.137923">
        <ele>316.427</ele>
        <time>2011-06-20T18:26:02Z</time>
      </trkpt>
      <trkpt lat="60.963837" lon="15.137688">
        <ele>316.783</ele>
        <time>2011-06-20T18:26:06Z</time>
      </trkpt>
      <trkpt lat="60.964076" lon="15.137451">
        <ele>317.202</ele>
        <time>2011-06-20T18:26:10Z</time>
      </trkpt>
      <trkpt lat="60.964312" lon="15.137191">
        <ele>317.789</ele>
        <time>2011-06-20T18:26:14Z</time>
      </trkpt>
      <trkpt lat="60.964655" lon="15.136767">
        <ele>319.223</ele>
        <time>2011-06-20T18:26:20Z</time>
      </trkpt>
      <trkpt lat="60.9649" lon="15.136398">
        <ele>319.989</ele>
        <time>2011-06-20T18:26:25Z</time>
      </trkpt>
      <trkpt lat="60.964933" lon="15.136136">
        <ele>320.772</ele>
        <time>2011-06-20T18:26:28Z</time>
      </trkpt>
      <trkpt lat="60.964811" lon="15.135943">
        <ele>320.716</ele>
        <time>2011-06-20T18:26:31Z</time>
      </trkpt>
      <trkpt lat="60.964373" lon="15.135488">
        <ele>319.161</ele>
        <time>2011-06-20T18:26:38Z</time>
      </trkpt>
      <trkpt lat="60.964024" lon="15.13496">
        <ele>317.184</ele>
        <time>2011-06-20T18:26:43Z</time>
      </trkpt>
      <trkpt lat="60.963781" lon="15.134358">
        <ele>316.33</ele>
        <time>2011-06-20T18:26:47Z</time>
      </trkpt>
      <trkpt lat="60.963551" lon="15.133683">
        <ele>315.484</ele>
        <time>2011-06-20T18:26:51Z</time>
      </trkpt>
      <trkpt lat="60.963237" lon="15.132619">
        <ele>314.477</ele>
        <time>2011-06-20T18:26:57Z</time>
      </trkpt>
      <trkpt lat="60.963011" lon="15.1319">
        <ele>313.711</ele>
        <time>2011-06-20T18:27:01Z</time>
      </trkpt>
      <trkpt lat="60.962725" lon="15.130986">
        <ele>312.558</ele>
        <time>2011-06-20T18:27:06Z</time>
      </trkpt>
      <trkpt lat="60.962478" lon="15.130237">
        <ele>312.372</ele>
        <time>2011-06-20T18:27:10Z</time>
      </trkpt>
      <trkpt lat="60.962118" lon="15.129362">
        <ele>310.924</ele>
        <time>2011-06-20T18:27:15Z</time>
      </trkpt>
      <trkpt lat="60.961798" lon="15.128696">
        <ele>310.061</ele>
        <time>2011-06-20T18:27:19Z</time>
      </trkpt>
      <trkpt lat="60.961357" lon="15.127897">
        <ele>308.341</ele>
        <time>2011-06-20T18:27:24Z</time>
      </trkpt>
      <trkpt lat="60.960857" lon="15.126948">
        <ele>307.729</ele>
        <time>2011-06-20T18:27:30Z</time>
      </trkpt>
      <trkpt lat="60.960261" lon="15.12582">
        <ele>305.135</ele>
        <time>2011-06-20T18:27:37Z</time>
      </trkpt>
      <trkpt lat="60.959798" lon="15.124913">
        <ele>301.225</ele>
        <time>2011-06-20T18:27:42Z</time>
      </trkpt>
      <trkpt lat="60.959046" lon="15.123695">
        <ele>295.121</ele>
        <time>2011-06-20T18:27:49Z</time>
      </trkpt>
      <trkpt lat="60.958318" lon="15.1228">
        <ele>290.066</ele>
        <time>2011-06-20T18:27:55Z</time>
      </trkpt>
      <trkpt lat="60.957589" lon="15.121917">
        <ele>286.65</ele>
        <time>2011-06-20T18:28:01Z</time>
      </trkpt>
      <trkpt lat="60.957253" lon="15.121439">
        <ele>285.402</ele>
        <time>2011-06-20T18:28:04Z</time>
      </trkpt>
      <trkpt lat="60.956779" lon="15.120881">
        <ele>284.492</ele>
        <time>2011-06-20T18:28:08Z</time>
      </trkpt>
      <trkpt lat="60.956161" lon="15.120377">
        <ele>283.224</ele>
        <time>2011-06-20T18:28:13Z</time>
      </trkpt>
      <trkpt lat="60.955647" lon="15.120262">
        <ele>281.929</ele>
        <time>2011-06-20T18:28:17Z</time>
      </trkpt>
      <trkpt lat="60.955027" lon="15.12011">
        <ele>280.997</ele>
        <time>2011-06-20T18:28:22Z</time>
      </trkpt>
      <trkpt lat="60.954532" lon="15.120079">
        <ele>281.182</ele>
        <time>2011-06-20T18:28:26Z</time>
      </trkpt>
      <trkpt lat="60.954286" lon="15.12013">
        <ele>280.322</ele>
        <time>2011-06-20T18:28:28Z</time>
      </trkpt>
      <trkpt lat="60.953688" lon="15.120381">
        <ele>279.43</ele>
        <time>2011-06-20T18:28:33Z</time>
      </trkpt>
      <trkpt lat="60.95322" lon="15.120595">
        <ele>278.675</ele>
        <time>2011-06-20T18:28:37Z</time>
      </trkpt>
      <trkpt lat="60.952649" lon="15.120789">
        <ele>277.366</ele>
        <time>2011-06-20T18:28:42Z</time>
      </trkpt>
      <trkpt lat="60.952088" lon="15.120704">
        <ele>275.463</ele>
        <time>2011-06-20T18:28:47Z</time>
      </trkpt>
      <trkpt lat="60.951525" lon="15.120415">
        <ele>273.259</ele>
        <time>2011-06-20T18:28:52Z</time>
      </trkpt>
      <trkpt lat="60.951301" lon="15.120251">
        <ele>272.304</ele>
        <time>2011-06-20T18:28:54Z</time>
      </trkpt>
      <trkpt lat="60.950804" lon="15.119596">
        <ele>270.467</ele>
        <time>2011-06-20T18:28:59Z</time>
      </trkpt>
      <trkpt lat="60.950348" lon="15.118867">
        <ele>271.947</ele>
        <time>2011-06-20T18:29:04Z</time>
      </trkpt>
      <trkpt lat="60.949899" lon="15.118167">
        <ele>271.295</ele>
        <time>2011-06-20T18:29:09Z</time>
      </trkpt>
      <trkpt lat="60.949465" lon="15.117478">
        <ele>270.88</ele>
        <time>2011-06-20T18:29:14Z</time>
      </trkpt>
      <trkpt lat="60.949162" lon="15.1168">
        <ele>270.491</ele>
        <time>2011-06-20T18:29:18Z</time>
      </trkpt>
      <trkpt lat="60.948924" lon="15.116026">
        <ele>270.281</ele>
        <time>2011-06-20T18:29:22Z</time>
      </trkpt>
      <trkpt lat="60.948662" lon="15.115066">
        <ele>270.22</ele>
        <time>2011-06-20T18:29:27Z</time>
      </trkpt>
      <trkpt lat="60.948405" lon="15.11414">
        <ele>269.896</ele>
        <time>2011-06-20T18:29:32Z</time>
      </trkpt>
      <trkpt lat="60.948149" lon="15.113249">
        <ele>269.242</ele>
        <time>2011-06-20T18:29:37Z</time>
      </trkpt>
      <trkpt lat="60.947848" lon="15.112254">
        <ele>269.839</ele>
        <time>2011-06-20T18:29:43Z</time>
      </trkpt>
      <trkpt lat="60.947576" lon="15.111361">
        <ele>270.665</ele>
        <time>2011-06-20T18:29:49Z</time>
      </trkpt>
      <trkpt lat="60.947376" lon="15.110887">
        <ele>271.429</ele>
        <time>2011-06-20T18:29:53Z</time>
      </trkpt>
      <trkpt lat="60.947209" lon="15.110615">
        <ele>272.141</ele>
        <time>2011-06-20T18:29:56Z</time>
      </trkpt>
      <trkpt lat="60.946931" lon="15.110515">
        <ele>272.379</ele>
        <time>2011-06-20T18:30:00Z</time>
      </trkpt>
      <trkpt lat="60.946614" lon="15.110613">
        <ele>271.937</ele>
        <time>2011-06-20T18:30:04Z</time>
      </trkpt>
      <trkpt lat="60.946188" lon="15.110611">
        <ele>271.258</ele>
        <time>2011-06-20T18:30:09Z</time>
      </trkpt>
      <trkpt lat="60.945667" lon="15.110551">
        <ele>270.762</ele>
        <time>2011-06-20T18:30:15Z</time>
      </trkpt>
      <trkpt lat="60.945223" lon="15.110487">
        <ele>270.569</ele>
        <time>2011-06-20T18:30:20Z</time>
      </trkpt>
      <trkpt lat="60.944732" lon="15.11051">
        <ele>270.928</ele>
        <time>2011-06-20T18:30:25Z</time>
      </trkpt>
      <trkpt lat="60.944264" lon="15.110439">
        <ele>270.732</ele>
        <time>2011-06-20T18:30:30Z</time>
      </trkpt>
      <trkpt lat="60.94387" lon="15.110398">
        <ele>270.898</ele>
        <time>2011-06-20T18:30:34Z</time>
      </trkpt>
      <trkpt lat="60.943478" lon="15.110331">
        <ele>270.69</ele>
        <time>2011-06-20T18:30:38Z</time>
      </trkpt>
      <trkpt lat="60.943008" lon="15.110191">
        <ele>270.917</ele>
        <time>2011-06-20T18:30:43Z</time>
      </trkpt>
      <trkpt lat="60.942626" lon="15.109839">
        <ele>271.186</ele>
        <time>2011-06-20T18:30:48Z</time>
      </trkpt>
      <trkpt lat="60.94232" lon="15.109459">
        <ele>271.309</ele>
        <time>2011-06-20T18:30:52Z</time>
      </trkpt>
      <trkpt lat="60.941964" lon="15.108883">
        <ele>270.057</ele>
        <time>2011-06-20T18:30:57Z</time>
      </trkpt>
      <trkpt lat="60.941704" lon="15.108335">
        <ele>269.57</ele>
        <time>2011-06-20T18:31:01Z</time>
      </trkpt>
      <trkpt lat="60.941433" lon="15.107771">
        <ele>269.102</ele>
        <time>2011-06-20T18:31:05Z</time>
      </trkpt>
      <trkpt lat="60.941092" lon="15.107061">
        <ele>269.901</ele>
        <time>2011-06-20T18:31:10Z</time>
      </trkpt>
      <trkpt lat="60.940765" lon="15.106356">
        <ele>269.682</ele>
        <time>2011-06-20T18:31:15Z</time>
      </trkpt>
      <trkpt lat="60.940366" lon="15.105547">
        <ele>269.588</ele>
        <time>2011-06-20T18:31:21Z</time>
      </trkpt>
      <trkpt lat="60.939955" lon="15.104725">
        <ele>268.202</ele>
        <time>2011-06-20T18:31:27Z</time>
      </trkpt>
      <trkpt lat="60.939609" lon="15.104021">
        <ele>265.571</ele>
        <time>2011-06-20T18:31:32Z</time>
      </trkpt>
      <trkpt lat="60.939212" lon="15.103388">
        <ele>266.457</ele>
        <time>2011-06-20T18:31:37Z</time>
      </trkpt>
      <trkpt lat="60.938771" lon="15.102879">
        <ele>265.438</ele>
        <time>2011-06-20T18:31:42Z</time>
      </trkpt>
      <trkpt lat="60.938272" lon="15.102564">
        <ele>264.663</ele>
        <time>2011-06-20T18:31:47Z</time>
      </trkpt>
      <trkpt lat="60.937777" lon="15.102353">
        <ele>264.324</ele>
        <time>2011-06-20T18:31:52Z</time>
      </trkpt>
      <trkpt lat="60.937283" lon="15.102093">
        <ele>263.383</ele>
        <time>2011-06-20T18:31:57Z</time>
      </trkpt>
      <trkpt lat="60.936883" lon="15.101873">
        <ele>262.561</ele>
        <time>2011-06-20T18:32:01Z</time>
      </trkpt>
      <trkpt lat="60.936394" lon="15.101582">
        <ele>262.35</ele>
        <time>2011-06-20T18:32:06Z</time>
      </trkpt>
      <trkpt lat="60.935847" lon="15.101245">
        <ele>262.512</ele>
        <time>2011-06-20T18:32:12Z</time>
      </trkpt>
      <trkpt lat="60.935414" lon="15.100925">
        <ele>262.104</ele>
        <time>2011-06-20T18:32:17Z</time>
      </trkpt>
      <trkpt lat="60.935152" lon="15.100713">
        <ele>261.808</ele>
        <time>2011-06-20T18:32:20Z</time>
      </trkpt>
      <trkpt lat="60.934723" lon="15.100334">
        <ele>262.678</ele>
        <time>2011-06-20T18:32:25Z</time>
      </trkpt>
      <trkpt lat="60.934292" lon="15.09997">
        <ele>262.852</ele>
        <time>2011-06-20T18:32:30Z</time>
      </trkpt>
      <trkpt lat="60.93388" lon="15.099593">
        <ele>262.031</ele>
        <time>2011-06-20T18:32:35Z</time>
      </trkpt>
      <trkpt lat="60.933502" lon="15.09915">
        <ele>261.466</ele>
        <time>2011-06-20T18:32:40Z</time>
      </trkpt>
      <trkpt lat="60.933203" lon="15.09879">
        <ele>261.494</ele>
        <time>2011-06-20T18:32:44Z</time>
      </trkpt>
      <trkpt lat="60.932901" lon="15.09842">
        <ele>261.643</ele>
        <time>2011-06-20T18:32:48Z</time>
      </trkpt>
      <trkpt lat="60.932536" lon="15.097918">
        <ele>261.488</ele>
        <time>2011-06-20T18:32:53Z</time>
      </trkpt>
      <trkpt lat="60.932113" lon="15.097281">
        <ele>261.384</ele>
        <time>2011-06-20T18:32:59Z</time>
      </trkpt>
      <trkpt lat="60.931692" lon="15.096655">
        <ele>261.036</ele>
        <time>2011-06-20T18:33:05Z</time>
      </trkpt>
      <trkpt lat="60.93128" lon="15.09604">
        <ele>260.886</ele>
        <time>2011-06-20T18:33:11Z</time>
      </trkpt>
      <trkpt lat="60.931082" lon="15.09576">
        <ele>261.032</ele>
        <time>2011-06-20T18:33:14Z</time>
      </trkpt>
      <trkpt lat="60.930896" lon="15.095503">
        <ele>261.11</ele>
        <time>2011-06-20T18:33:17Z</time>
      </trkpt>
      <trkpt lat="60.93063" lon="15.095397">
        <ele>261.71</ele>
        <time>2011-06-20T18:33:21Z</time>
      </trkpt>
      <trkpt lat="60.930335" lon="15.095525">
        <ele>263.573</ele>
        <time>2011-06-20T18:33:26Z</time>
      </trkpt>
      <trkpt lat="60.930287" lon="15.09556">
        <ele>264.056</ele>
        <time>2011-06-20T18:33:27Z</time>
      </trkpt>
      <trkpt lat="60.930112" lon="15.095736">
        <ele>265.168</ele>
        <time>2011-06-20T18:33:31Z</time>
      </trkpt>
      <trkpt lat="60.929791" lon="15.095901">
        <ele>266.481</ele>
        <time>2011-06-20T18:33:38Z</time>
      </trkpt>
      <trkpt lat="60.929564" lon="15.096081">
        <ele>267.875</ele>
        <time>2011-06-20T18:33:44Z</time>
      </trkpt>
      <trkpt lat="60.929375" lon="15.096293">
        <ele>268.237</ele>
        <time>2011-06-20T18:33:49Z</time>
      </trkpt>
      <trkpt lat="60.929116" lon="15.096576">
        <ele>268.388</ele>
        <time>2011-06-20T18:33:55Z</time>
      </trkpt>
      <trkpt lat="60.928754" lon="15.096934">
        <ele>268.422</ele>
        <time>2011-06-20T18:34:03Z</time>
      </trkpt>
      <trkpt lat="60.928431" lon="15.097261">
        <ele>268.138</ele>
        <time>2011-06-20T18:34:09Z</time>
      </trkpt>
      <trkpt lat="60.927952" lon="15.097622">
        <ele>267.558</ele>
        <time>2011-06-20T18:34:17Z</time>
      </trkpt>
      <trkpt lat="60.927545" lon="15.097671">
        <ele>265.861</ele>
        <time>2011-06-20T18:34:23Z</time>
      </trkpt>
      <trkpt lat="60.927191" lon="15.097507">
        <ele>265.142</ele>
        <time>2011-06-20T18:34:28Z</time>
      </trkpt>
      <trkpt lat="60.926794" lon="15.097">
        <ele>264.751</ele>
        <time>2011-06-20T18:34:34Z</time>
      </trkpt>
      <trkpt lat="60.926307" lon="15.09622">
        <ele>262.119</ele>
        <time>2011-06-20T18:34:41Z</time>
      </trkpt>
      <trkpt lat="60.925765" lon="15.095321">
        <ele>258.52</ele>
        <time>2011-06-20T18:34:48Z</time>
      </trkpt>
      <trkpt lat="60.925363" lon="15.094646">
        <ele>257.608</ele>
        <time>2011-06-20T18:34:53Z</time>
      </trkpt>
      <trkpt lat="60.925034" lon="15.094084">
        <ele>257.297</ele>
        <time>2011-06-20T18:34:57Z</time>
      </trkpt>
      <trkpt lat="60.924731" lon="15.093478">
        <ele>257.385</ele>
        <time>2011-06-20T18:35:01Z</time>
      </trkpt>
      <trkpt lat="60.924463" lon="15.092823">
        <ele>257.183</ele>
        <time>2011-06-20T18:35:05Z</time>
      </trkpt>
      <trkpt lat="60.924211" lon="15.092201">
        <ele>256.852</ele>
        <time>2011-06-20T18:35:09Z</time>
      </trkpt>
      <trkpt lat="60.924036" lon="15.091769">
        <ele>257.755</ele>
        <time>2011-06-20T18:35:12Z</time>
      </trkpt>
      <trkpt lat="60.923873" lon="15.091353">
        <ele>258.696</ele>
        <time>2011-06-20T18:35:15Z</time>
      </trkpt>
      <trkpt lat="60.923714" lon="15.090944">
        <ele>259.582</ele>
        <time>2011-06-20T18:35:18Z</time>
      </trkpt>
      <trkpt lat="60.92352" lon="15.090434">
        <ele>261.355</ele>
        <time>2011-06-20T18:35:22Z</time>
      </trkpt>
      <trkpt lat="60.923349" lon="15.09005">
        <ele>261.184</ele>
        <time>2011-06-20T18:35:25Z</time>
      </trkpt>
      <trkpt lat="60.92309" lon="15.089456">
        <ele>259.939</ele>
        <time>2011-06-20T18:35:29Z</time>
      </trkpt>
      <trkpt lat="60.922798" lon="15.08885">
        <ele>258.748</ele>
        <time>2011-06-20T18:35:33Z</time>
      </trkpt>
      <trkpt lat="60.92241" lon="15.088463">
        <ele>257.734</ele>
        <time>2011-06-20T18:35:37Z</time>
      </trkpt>
      <trkpt lat="60.922078" lon="15.088391">
        <ele>256.527</ele>
        <time>2011-06-20T18:35:40Z</time>
      </trkpt>
      <trkpt lat="60.921622" lon="15.088571">
        <ele>256.044</ele>
        <time>2011-06-20T18:35:44Z</time>
      </trkpt>
      <trkpt lat="60.921008" lon="15.089095">
        <ele>252.671</ele>
        <time>2011-06-20T18:35:49Z</time>
      </trkpt>
      <trkpt lat="60.92051" lon="15.089485">
        <ele>250.896</ele>
        <time>2011-06-20T18:35:53Z</time>
      </trkpt>
      <trkpt lat="60.919926" lon="15.089891">
        <ele>251.022</ele>
        <time>2011-06-20T18:35:58Z</time>
      </trkpt>
      <trkpt lat="60.919466" lon="15.09002">
        <ele>251.314</ele>
        <time>2011-06-20T18:36:02Z</time>
      </trkpt>
      <trkpt lat="60.918767" lon="15.09014">
        <ele>251.147</ele>
        <time>2011-06-20T18:36:08Z</time>
      </trkpt>
      <trkpt lat="60.918269" lon="15.090259">
        <ele>251.611</ele>
        <time>2011-06-20T18:36:13Z</time>
      </trkpt>
      <trkpt lat="60.917847" lon="15.090514">
        <ele>252.146</ele>
        <time>2011-06-20T18:36:18Z</time>
      </trkpt>
      <trkpt lat="60.917581" lon="15.090792">
        <ele>253.436</ele>
        <time>2011-06-20T18:36:22Z</time>
      </trkpt>
      <trkpt lat="60.917372" lon="15.091085">
        <ele>256.133</ele>
        <time>2011-06-20T18:36:26Z</time>
      </trkpt>
      <trkpt lat="60.917242" lon="15.091504">
        <ele>257.227</ele>
        <time>2011-06-20T18:36:30Z</time>
      </trkpt>
      <trkpt lat="60.917154" lon="15.092239">
        <ele>258.652</ele>
        <time>2011-06-20T18:36:37Z</time>
      </trkpt>
      <trkpt lat="60.917062" lon="15.09282">
        <ele>259.651</ele>
        <time>2011-06-20T18:36:43Z</time>
      </trkpt>
      <trkpt lat="60.916912" lon="15.093519">
        <ele>260.547</ele>
        <time>2011-06-20T18:36:50Z</time>
      </trkpt>
      <trkpt lat="60.916695" lon="15.09411">
        <ele>259.804</ele>
        <time>2011-06-20T18:36:56Z</time>
      </trkpt>
      <trkpt lat="60.916532" lon="15.094378">
        <ele>259.08</ele>
        <time>2011-06-20T18:36:59Z</time>
      </trkpt>
      <trkpt lat="60.916101" lon="15.094834">
        <ele>257.444</ele>
        <time>2011-06-20T18:37:05Z</time>
      </trkpt>
      <trkpt lat="60.915778" lon="15.095152">
        <ele>256.615</ele>
        <time>2011-06-20T18:37:09Z</time>
      </trkpt>
      <trkpt lat="60.915354" lon="15.095583">
        <ele>255.91</ele>
        <time>2011-06-20T18:37:14Z</time>
      </trkpt>
      <trkpt lat="60.914811" lon="15.096142">
        <ele>253.952</ele>
        <time>2011-06-20T18:37:20Z</time>
      </trkpt>
      <trkpt lat="60.914241" lon="15.096755">
        <ele>252.31</ele>
        <time>2011-06-20T18:37:26Z</time>
      </trkpt>
      <trkpt lat="60.913765" lon="15.097283">
        <ele>251.216</ele>
        <time>2011-06-20T18:37:31Z</time>
      </trkpt>
      <trkpt lat="60.913141" lon="15.097998">
        <ele>248.733</ele>
        <time>2011-06-20T18:37:37Z</time>
      </trkpt>
      <trkpt lat="60.912804" lon="15.098699">
        <ele>246.422</ele>
        <time>2011-06-20T18:37:41Z</time>
      </trkpt>
      <trkpt lat="60.912351" lon="15.099826">
        <ele>244.252</ele>
        <time>2011-06-20T18:37:47Z</time>
      </trkpt>
      <trkpt lat="60.912266" lon="15.100002">
        <ele>243.751</ele>
        <time>2011-06-20T18:37:48Z</time>
      </trkpt>
      <trkpt lat="60.91182" lon="15.100476">
        <ele>241.946</ele>
        <time>2011-06-20T18:37:52Z</time>
      </trkpt>
      <trkpt lat="60.911691" lon="15.100497">
        <ele>241.252</ele>
        <time>2011-06-20T18:37:53Z</time>
      </trkpt>
      <trkpt lat="60.910898" lon="15.100507">
        <ele>237.291</ele>
        <time>2011-06-20T18:37:59Z</time>
      </trkpt>
      <trkpt lat="60.910375" lon="15.100734">
        <ele>235.405</ele>
        <time>2011-06-20T18:38:03Z</time>
      </trkpt>
      <trkpt lat="60.909923" lon="15.101191">
        <ele>234.434</ele>
        <time>2011-06-20T18:38:07Z</time>
      </trkpt>
      <trkpt lat="60.909494" lon="15.101685">
        <ele>232.709</ele>
        <time>2011-06-20T18:38:11Z</time>
      </trkpt>
      <trkpt lat="60.909269" lon="15.101839">
        <ele>231.177</ele>
        <time>2011-06-20T18:38:13Z</time>
      </trkpt>
      <trkpt lat="60.908571" lon="15.102021">
        <ele>227.378</ele>
        <time>2011-06-20T18:38:18Z</time>
      </trkpt>
      <trkpt lat="60.907855" lon="15.102301">
        <ele>224.759</ele>
        <time>2011-06-20T18:38:23Z</time>
      </trkpt>
      <trkpt lat="60.907345" lon="15.102551">
        <ele>225.73</ele>
        <time>2011-06-20T18:38:27Z</time>
      </trkpt>
      <trkpt lat="60.906911" lon="15.102635">
        <ele>228.17</ele>
        <time>2011-06-20T18:38:31Z</time>
      </trkpt>
      <trkpt lat="60.90682" lon="15.10264">
        <ele>228.426</ele>
        <time>2011-06-20T18:38:32Z</time>
      </trkpt>
      <trkpt lat="60.906449" lon="15.102693">
        <ele>230.34</ele>
        <time>2011-06-20T18:38:36Z</time>
      </trkpt>
      <trkpt lat="60.906055" lon="15.102732">
        <ele>230.054</ele>
        <time>2011-06-20T18:38:40Z</time>
      </trkpt>
      <trkpt lat="60.905508" lon="15.102613">
        <ele>228.259</ele>
        <time>2011-06-20T18:38:45Z</time>
      </trkpt>
      <trkpt lat="60.905037" lon="15.102471">
        <ele>224.91</ele>
        <time>2011-06-20T18:38:49Z</time>
      </trkpt>
      <trkpt lat="60.904482" lon="15.102365">
        <ele>224.875</ele>
        <time>2011-06-20T18:38:54Z</time>
      </trkpt>
      <trkpt lat="60.904069" lon="15.1023">
        <ele>225.745</ele>
        <time>2011-06-20T18:38:58Z</time>
      </trkpt>
      <trkpt lat="60.903674" lon="15.102115">
        <ele>226.253</ele>
        <time>2011-06-20T18:39:02Z</time>
      </trkpt>
      <trkpt lat="60.903312" lon="15.101842">
        <ele>226.713</ele>
        <time>2011-06-20T18:39:06Z</time>
      </trkpt>
      <trkpt lat="60.902632" lon="15.101308">
        <ele>224.276</ele>
        <time>2011-06-20T18:39:13Z</time>
      </trkpt>
      <trkpt lat="60.902139" lon="15.100993">
        <ele>223.341</ele>
        <time>2011-06-20T18:39:18Z</time>
      </trkpt>
      <trkpt lat="60.901618" lon="15.100767">
        <ele>222.045</ele>
        <time>2011-06-20T18:39:23Z</time>
      </trkpt>
      <trkpt lat="60.901002" lon="15.100513">
        <ele>221.006</ele>
        <time>2011-06-20T18:39:29Z</time>
      </trkpt>
      <trkpt lat="60.900416" lon="15.100386">
        <ele>219.987</ele>
        <time>2011-06-20T18:39:35Z</time>
      </trkpt>
      <trkpt lat="60.899886" lon="15.100508">
        <ele>219.904</ele>
        <time>2011-06-20T18:39:40Z</time>
      </trkpt>
      <trkpt lat="60.899218" lon="15.1007">
        <ele>217.618</ele>
        <time>2011-06-20T18:39:46Z</time>
      </trkpt>
      <trkpt lat="60.898437" lon="15.100922">
        <ele>215.321</ele>
        <time>2011-06-20T18:39:53Z</time>
      </trkpt>
      <trkpt lat="60.89787" lon="15.101093">
        <ele>213.993</ele>
        <time>2011-06-20T18:39:58Z</time>
      </trkpt>
      <trkpt lat="60.897325" lon="15.101237">
        <ele>212.483</ele>
        <time>2011-06-20T18:40:03Z</time>
      </trkpt>
      <trkpt lat="60.896806" lon="15.101378">
        <ele>211.137</ele>
        <time>2011-06-20T18:40:08Z</time>
      </trkpt>
      <trkpt lat="60.896079" lon="15.101555">
        <ele>208.359</ele>
        <time>2011-06-20T18:40:15Z</time>
      </trkpt>
      <trkpt lat="60.895782" lon="15.101632">
        <ele>207.612</ele>
        <time>2011-06-20T18:40:18Z</time>
      </trkpt>
      <trkpt lat="60.895423" lon="15.101954">
        <ele>208.426</ele>
        <time>2011-06-20T18:40:22Z</time>
      </trkpt>
      <trkpt lat="60.894983" lon="15.102564">
        <ele>206.739</ele>
        <time>2011-06-20T18:40:27Z</time>
      </trkpt>
      <trkpt lat="60.894533" lon="15.103537">
        <ele>204.995</ele>
        <time>2011-06-20T18:40:33Z</time>
      </trkpt>
      <trkpt lat="60.894415" lon="15.104379">
        <ele>205.284</ele>
        <time>2011-06-20T18:40:37Z</time>
      </trkpt>
      <trkpt lat="60.89443" lon="15.10459">
        <ele>205.179</ele>
        <time>2011-06-20T18:40:38Z</time>
      </trkpt>
      <trkpt lat="60.894581" lon="15.106032">
        <ele>206.045</ele>
        <time>2011-06-20T18:40:45Z</time>
      </trkpt>
      <trkpt lat="60.894633" lon="15.106621">
        <ele>205.463</ele>
        <time>2011-06-20T18:40:48Z</time>
      </trkpt>
      <trkpt lat="60.894718" lon="15.107197">
        <ele>204.869</ele>
        <time>2011-06-20T18:40:51Z</time>
      </trkpt>
      <trkpt lat="60.894956" lon="15.10781">
        <ele>205.841</ele>
        <time>2011-06-20T18:40:55Z</time>
      </trkpt>
      <trkpt lat="60.895029" lon="15.107926">
        <ele>206.127</ele>
        <time>2011-06-20T18:40:56Z</time>
      </trkpt>
      <trkpt lat="60.895493" lon="15.108583">
        <ele>206.927</ele>
        <time>2011-06-20T18:41:02Z</time>
      </trkpt>
      <trkpt lat="60.895881" lon="15.109137">
        <ele>207.134</ele>
        <time>2011-06-20T18:41:07Z</time>
      </trkpt>
      <trkpt lat="60.896275" lon="15.109676">
        <ele>207.386</ele>
        <time>2011-06-20T18:41:12Z</time>
      </trkpt>
      <trkpt lat="60.896677" lon="15.110372">
        <ele>207.18</ele>
        <time>2011-06-20T18:41:18Z</time>
      </trkpt>
      <trkpt lat="60.89715" lon="15.111417">
        <ele>207.515</ele>
        <time>2011-06-20T18:41:26Z</time>
      </trkpt>
      <trkpt lat="60.897353" lon="15.112086">
        <ele>207.791</ele>
        <time>2011-06-20T18:41:31Z</time>
      </trkpt>
      <trkpt lat="60.897519" lon="15.112932">
        <ele>207.639</ele>
        <time>2011-06-20T18:41:37Z</time>
      </trkpt>
      <trkpt lat="60.897762" lon="15.113713">
        <ele>207.729</ele>
        <time>2011-06-20T18:41:43Z</time>
      </trkpt>
      <trkpt lat="60.898063" lon="15.114635">
        <ele>207.781</ele>
        <time>2011-06-20T18:41:50Z</time>
      </trkpt>
      <trkpt lat="60.898112" lon="15.115415">
        <ele>208.06</ele>
        <time>2011-06-20T18:41:55Z</time>
      </trkpt>
      <trkpt lat="60.898082" lon="15.116238">
        <ele>207.794</ele>
        <time>2011-06-20T18:42:00Z</time>
      </trkpt>
      <trkpt lat="60.898111" lon="15.116712">
        <ele>208.243</ele>
        <time>2011-06-20T18:42:03Z</time>
      </trkpt>
      <trkpt lat="60.898163" lon="15.117006">
        <ele>208.35</ele>
        <time>2011-06-20T18:42:05Z</time>
      </trkpt>
      <trkpt lat="60.898432" lon="15.118081">
        <ele>208.441</ele>
        <time>2011-06-20T18:42:13Z</time>
      </trkpt>
      <trkpt lat="60.898672" lon="15.118804">
        <ele>208.637</ele>
        <time>2011-06-20T18:42:19Z</time>
      </trkpt>
      <trkpt lat="60.898915" lon="15.119277">
        <ele>209.17</ele>
        <time>2011-06-20T18:42:24Z</time>
      </trkpt>
      <trkpt lat="60.899181" lon="15.119779">
        <ele>209.662</ele>
        <time>2011-06-20T18:42:30Z</time>
      </trkpt>
      <trkpt lat="60.899398" lon="15.120387">
        <ele>209.758</ele>
        <time>2011-06-20T18:42:36Z</time>
      </trkpt>
      <trkpt lat="60.899557" lon="15.121043">
        <ele>210.465</ele>
        <time>2011-06-20T18:42:42Z</time>
      </trkpt>
      <trkpt lat="60.89976" lon="15.121872">
        <ele>210.989</ele>
        <time>2011-06-20T18:42:50Z</time>
      </trkpt>
      <trkpt lat="60.899758" lon="15.122265">
        <ele>211.336</ele>
        <time>2011-06-20T18:42:54Z</time>
      </trkpt>
      <trkpt lat="60.899668" lon="15.122368">
        <ele>211.392</ele>
        <time>2011-06-20T18:42:56Z</time>
      </trkpt>
      <trkpt lat="60.899361" lon="15.122568">
        <ele>210.805</ele>
        <time>2011-06-20T18:43:01Z</time>
      </trkpt>
      <trkpt lat="60.898977" lon="15.122838">
        <ele>210.515</ele>
        <time>2011-06-20T18:43:07Z</time>
      </trkpt>
      <trkpt lat="60.898739" lon="15.123114">
        <ele>210.364</ele>
        <time>2011-06-20T18:43:11Z</time>
      </trkpt>
      <trkpt lat="60.898364" lon="15.123743">
        <ele>210.741</ele>
        <time>2011-06-20T18:43:18Z</time>
      </trkpt>
      <trkpt lat="60.897916" lon="15.124547">
        <ele>209.844</ele>
        <time>2011-06-20T18:43:26Z</time>
      </trkpt>
      <trkpt lat="60.897433" lon="15.125271">
        <ele>208.808</ele>
        <time>2011-06-20T18:43:34Z</time>
      </trkpt>
      <trkpt lat="60.896935" lon="15.125855">
        <ele>208.059</ele>
        <time>2011-06-20T18:43:42Z</time>
      </trkpt>
      <trkpt lat="60.896397" lon="15.126337">
        <ele>207.054</ele>
        <time>2011-06-20T18:43:50Z</time>
      </trkpt>
      <trkpt lat="60.895927" lon="15.126393">
        <ele>205.894</ele>
        <time>2011-06-20T18:43:56Z</time>
      </trkpt>
      <trkpt lat="60.895585" lon="15.126368">
        <ele>204.276</ele>
        <time>2011-06-20T18:44:00Z</time>
      </trkpt>
      <trkpt lat="60.894714" lon="15.1262">
        <ele>201.408</ele>
        <time>2011-06-20T18:44:10Z</time>
      </trkpt>
      <trkpt lat="60.894013" lon="15.125962">
        <ele>201.288</ele>
        <time>2011-06-20T18:44:18Z</time>
      </trkpt>
      <trkpt lat="60.893392" lon="15.125699">
        <ele>200.364</ele>
        <time>2011-06-20T18:44:25Z</time>
      </trkpt>
      <trkpt lat="60.892841" lon="15.125497">
        <ele>198.765</ele>
        <time>2011-06-20T18:44:31Z</time>
      </trkpt>
      <trkpt lat="60.892384" lon="15.125336">
        <ele>197.282</ele>
        <time>2011-06-20T18:44:36Z</time>
      </trkpt>
      <trkpt lat="60.89201" lon="15.125209">
        <ele>198.539</ele>
        <time>2011-06-20T18:44:40Z</time>
      </trkpt>
      <trkpt lat="60.891531" lon="15.12504">
        <ele>198.091</ele>
        <time>2011-06-20T18:44:45Z</time>
      </trkpt>
      <trkpt lat="60.890954" lon="15.124814">
        <ele>196.935</ele>
        <time>2011-06-20T18:44:51Z</time>
      </trkpt>
      <trkpt lat="60.890468" lon="15.124648">
        <ele>197.25</ele>
        <time>2011-06-20T18:44:56Z</time>
      </trkpt>
      <trkpt lat="60.890007" lon="15.124474">
        <ele>196.522</ele>
        <time>2011-06-20T18:45:01Z</time>
      </trkpt>
      <trkpt lat="60.889368" lon="15.124231">
        <ele>196.571</ele>
        <time>2011-06-20T18:45:08Z</time>
      </trkpt>
      <trkpt lat="60.888663" lon="15.12399">
        <ele>196.969</ele>
        <time>2011-06-20T18:45:16Z</time>
      </trkpt>
      <trkpt lat="60.888399" lon="15.123888">
        <ele>196.106</ele>
        <time>2011-06-20T18:45:19Z</time>
      </trkpt>
      <trkpt lat="60.888124" lon="15.123582">
        <ele>195.094</ele>
        <time>2011-06-20T18:45:23Z</time>
      </trkpt>
      <trkpt lat="60.888016" lon="15.123345">
        <ele>195.217</ele>
        <time>2011-06-20T18:45:25Z</time>
      </trkpt>
      <trkpt lat="60.887862" lon="15.122978">
        <ele>195.268</ele>
        <time>2011-06-20T18:45:28Z</time>
      </trkpt>
      <trkpt lat="60.887653" lon="15.122765">
        <ele>195.095</ele>
        <time>2011-06-20T18:45:31Z</time>
      </trkpt>
      <trkpt lat="60.887504" lon="15.122872">
        <ele>195.42</ele>
        <time>2011-06-20T18:45:33Z</time>
      </trkpt>
      <trkpt lat="60.88714" lon="15.122973">
        <ele>194.864</ele>
        <time>2011-06-20T18:45:38Z</time>
      </trkpt>
      <trkpt lat="60.88693" lon="15.12283">
        <ele>194.976</ele>
        <time>2011-06-20T18:45:41Z</time>
      </trkpt>
      <trkpt lat="60.886643" lon="15.12237">
        <ele>193.709</ele>
        <time>2011-06-20T18:45:46Z</time>
      </trkpt>
      <trkpt lat="60.886312" lon="15.121751">
        <ele>193.66</ele>
        <time>2011-06-20T18:45:52Z</time>
      </trkpt>
      <trkpt lat="60.885933" lon="15.121036">
        <ele>193.926</ele>
        <time>2011-06-20T18:45:59Z</time>
      </trkpt>
      <trkpt lat="60.885655" lon="15.120555">
        <ele>193.917</ele>
        <time>2011-06-20T18:46:04Z</time>
      </trkpt>
      <trkpt lat="60.885416" lon="15.120405">
        <ele>193.641</ele>
        <time>2011-06-20T18:46:08Z</time>
      </trkpt>
      <trkpt lat="60.885234" lon="15.120664">
        <ele>193.81</ele>
        <time>2011-06-20T18:46:11Z</time>
      </trkpt>
      <trkpt lat="60.884989" lon="15.121069">
        <ele>193.189</ele>
        <time>2011-06-20T18:46:15Z</time>
      </trkpt>
      <trkpt lat="60.88445" lon="15.121939">
        <ele>192.574</ele>
        <time>2011-06-20T18:46:24Z</time>
      </trkpt>
      <trkpt lat="60.884341" lon="15.122106">
        <ele>192.613</ele>
        <time>2011-06-20T18:46:26Z</time>
      </trkpt>
      <trkpt lat="60.884138" lon="15.122439">
        <ele>192.936</ele>
        <time>2011-06-20T18:46:30Z</time>
      </trkpt>
    </trkseg>
  </trk>
</gpx>